createdAt,value
2022-09-03T00:05:52.256Z,17.91
2022-09-03T00:08:40.789Z,17.89
2022-09-03T00:11:13.808Z,17.87
2022-09-03T00:13:53.747Z,17.84
2022-09-03T00:16:27.324Z,17.89
2022-09-03T00:19:03.794Z,17.92
2022-09-03T00:21:52.880Z,17.97
2022-09-03T00:24:23.417Z,17.92
2022-09-03T00:26:56.020Z,17.95
2022-09-03T00:29:37.104Z,17.94
2022-09-03T00:32:11.098Z,17.95
2022-09-03T00:34:48.971Z,17.99
2022-09-03T00:37:16.745Z,17.95
2022-09-03T00:39:44.573Z,18.04
2022-09-03T00:42:27.248Z,18.12
2022-09-03T00:45:01.133Z,18.08
2022-09-03T00:47:57.987Z,18.13
2022-09-03T00:50:31.147Z,18.10
2022-09-03T00:53:04.042Z,18.11
2022-09-03T00:55:34.338Z,18.09
2022-09-03T00:58:21.744Z,18.14
2022-09-03T01:00:53.251Z,18.08
2022-09-03T01:03:24.666Z,18.06
2022-09-03T01:06:01.815Z,18.05
2022-09-03T01:09:12.394Z,18.10
2022-09-03T01:11:59.927Z,18.05
2022-09-03T01:14:37.733Z,17.98
2022-09-03T01:17:37.602Z,18.04
2022-09-03T01:20:30.490Z,18.04
2022-09-03T01:23:22.396Z,18.10
2022-09-03T01:26:02.158Z,18.11
2022-09-03T01:28:42.636Z,18.14
2022-09-03T01:31:27.186Z,17.99
2022-09-03T01:34:18.463Z,18.10
2022-09-03T01:37:10.501Z,18.09
2022-09-03T01:40:07.434Z,18.02
2022-09-03T01:43:01.359Z,18.02
2022-09-03T01:45:32.495Z,18.02
2022-09-03T01:48:27.351Z,18.09
2022-09-03T01:51:23.839Z,18.06
2022-09-03T01:54:18.088Z,17.96
2022-09-03T01:57:35.886Z,17.99
2022-09-03T02:00:13.460Z,17.92
2022-09-03T02:02:44.424Z,17.82
2022-09-03T02:05:14.519Z,17.77
2022-09-03T02:07:46.863Z,17.77
2022-09-03T02:10:18.176Z,17.74
2022-09-03T02:12:55.408Z,17.69
2022-09-03T02:15:25.817Z,17.73
2022-09-03T02:17:57.455Z,17.74
2022-09-03T02:20:28.374Z,17.69
2022-09-03T02:22:57.924Z,17.67
2022-09-03T02:25:35.979Z,17.67
2022-09-03T02:28:06.606Z,17.64
2022-09-03T02:30:44.080Z,17.74
2022-09-03T02:33:11.543Z,17.67
2022-09-03T02:35:40.846Z,17.68
2022-09-03T02:38:18.061Z,17.63
2022-09-03T02:40:46.551Z,17.60
2022-09-03T02:43:20.985Z,17.60
2022-09-03T02:45:57.843Z,17.62
2022-09-03T02:48:25.832Z,17.62
2022-09-03T02:50:53.239Z,17.64
2022-09-03T02:53:20.814Z,17.57
2022-09-03T02:55:48.263Z,17.57
2022-09-03T02:58:15.558Z,17.61
2022-09-03T03:00:43.122Z,17.61
2022-09-03T03:03:10.489Z,17.68
2022-09-03T03:05:46.902Z,17.71
2022-09-03T03:08:21.356Z,17.75
2022-09-03T03:10:49.713Z,17.70
2022-09-03T03:13:17.041Z,17.74
2022-09-03T03:15:45.095Z,17.77
2022-09-03T03:18:14.203Z,17.88
2022-09-03T03:20:42.642Z,17.84
2022-09-03T03:23:11.013Z,17.77
2022-09-03T03:25:39.974Z,17.92
2022-09-03T03:28:08.140Z,17.89
2022-09-03T03:30:39.993Z,17.95
2022-09-03T03:33:08.313Z,17.92
2022-09-03T03:35:36.848Z,18.00
2022-09-03T03:38:05.231Z,17.90
2022-09-03T03:40:32.702Z,17.96
2022-09-03T03:42:59.923Z,18.05
2022-09-03T03:45:27.110Z,18.05
2022-09-03T03:47:58.490Z,18.02
2022-09-03T03:50:26.206Z,18.07
2022-09-03T03:52:53.449Z,18.09
2022-09-03T03:55:20.732Z,18.09
2022-09-03T03:57:47.907Z,18.12
2022-09-03T04:00:16.064Z,18.18
2022-09-03T04:02:43.639Z,18.12
2022-09-03T04:05:11.561Z,18.08
2022-09-03T04:07:39.071Z,18.09
2022-09-03T04:10:06.983Z,17.99
2022-09-03T04:12:34.274Z,17.98
2022-09-03T04:15:01.870Z,18.06
2022-09-03T04:17:32.176Z,18.09
2022-09-03T04:19:59.701Z,17.88
2022-09-03T04:22:29.848Z,18.17
2022-09-03T04:24:57.222Z,18.13
2022-09-03T04:27:24.781Z,18.04
2022-09-03T04:29:52.091Z,18.12
2022-09-03T04:32:37.743Z,18.11
2022-09-03T04:35:05.248Z,18.10
2022-09-03T04:37:33.515Z,18.19
2022-09-03T04:40:00.849Z,18.17
2022-09-03T04:42:28.292Z,18.19
2022-09-03T04:44:55.477Z,18.25
2022-09-03T04:47:22.767Z,18.25
2022-09-03T04:49:49.995Z,18.32
2022-09-03T04:52:17.441Z,18.38
2022-09-03T04:54:44.905Z,18.35
2022-09-03T04:57:12.248Z,18.44
2022-09-03T04:59:41.286Z,18.54
2022-09-03T05:02:09.872Z,18.65
2022-09-03T05:04:37.333Z,18.70
2022-09-03T05:07:04.731Z,18.77
2022-09-03T05:09:32.171Z,18.81
2022-09-03T05:11:59.498Z,18.82
2022-09-03T05:14:27.060Z,18.94
2022-09-03T05:16:56.029Z,18.93
2022-09-03T05:19:23.423Z,19.08
2022-09-03T05:21:50.716Z,19.13
2022-09-03T05:24:18.798Z,19.22
2022-09-03T05:26:45.996Z,19.39
2022-09-03T05:29:14.499Z,19.35
2022-09-03T05:31:42.013Z,19.35
2022-09-03T05:34:10.272Z,19.44
2022-09-03T05:36:43.609Z,19.50
2022-09-03T05:39:10.914Z,19.60
2022-09-03T05:41:38.183Z,19.71
2022-09-03T05:44:06.180Z,19.85
2022-09-03T05:46:34.461Z,19.92
2022-09-03T05:49:03.741Z,19.83
2022-09-03T05:51:32.488Z,19.91
2022-09-03T05:54:00.229Z,20.03
2022-09-03T05:56:30.782Z,20.06
2022-09-03T05:59:05.803Z,20.04
2022-09-03T06:01:35.582Z,20.11
2022-09-03T06:04:14.113Z,20.20
2022-09-03T06:06:44.341Z,20.15
2022-09-03T06:09:30.726Z,20.07
2022-09-03T06:11:58.097Z,19.92
2022-09-03T06:14:27.030Z,19.98
2022-09-03T06:16:55.900Z,20.12
2022-09-03T06:19:23.438Z,20.20
2022-09-03T06:21:50.756Z,20.24
2022-09-03T06:24:28.412Z,20.29
2022-09-03T06:26:57.843Z,20.30
2022-09-03T06:29:25.283Z,20.33
2022-09-03T06:31:54.108Z,20.32
2022-09-03T06:34:22.894Z,20.37
2022-09-03T06:36:50.795Z,20.40
2022-09-03T06:39:18.043Z,20.46
2022-09-03T06:41:48.404Z,20.49
2022-09-03T06:44:15.795Z,20.49
2022-09-03T06:46:43.105Z,20.59
2022-09-03T06:49:11.746Z,20.76
2022-09-03T06:51:43.466Z,20.71
2022-09-03T06:54:12.704Z,20.78
2022-09-03T06:56:41.752Z,20.92
2022-09-03T06:59:14.713Z,20.94
2022-09-03T07:01:45.524Z,21.06
2022-09-03T07:04:16.857Z,21.17
2022-09-03T07:06:47.365Z,21.18
2022-09-03T07:09:15.979Z,21.25
2022-09-03T07:11:47.721Z,21.28
2022-09-03T07:14:19.863Z,21.39
2022-09-03T07:16:48.792Z,21.44
2022-09-03T07:19:16.353Z,21.42
2022-09-03T07:21:49.199Z,21.39
2022-09-03T07:24:18.749Z,21.35
2022-09-03T07:26:47.337Z,21.36
2022-09-03T07:29:16.166Z,21.47
2022-09-03T07:31:44.375Z,21.35
2022-09-03T07:34:13.731Z,21.28
2022-09-03T07:36:43.385Z,21.37
2022-09-03T07:39:12.626Z,21.47
2022-09-03T07:41:45.961Z,21.53
2022-09-03T07:44:15.531Z,21.62
2022-09-03T07:46:45.603Z,21.60
2022-09-03T07:49:13.322Z,21.45
2022-09-03T07:51:41.097Z,21.38
2022-09-03T07:54:11.424Z,21.43
2022-09-03T07:56:41.372Z,21.36
2022-09-03T07:59:09.328Z,21.38
2022-09-03T08:01:41.182Z,21.54
2022-09-03T08:04:09.964Z,21.51
2022-09-03T08:06:38.570Z,21.70
2022-09-03T08:09:08.844Z,21.76
2022-09-03T08:11:41.778Z,21.67
2022-09-03T08:14:14.245Z,21.65
2022-09-03T08:16:44.060Z,21.70
2022-09-03T08:19:13.531Z,21.82
2022-09-03T08:21:42.419Z,21.92
2022-09-03T08:24:11.800Z,21.83
2022-09-03T08:26:46.272Z,21.78
2022-09-03T08:29:15.058Z,21.78
2022-09-03T08:31:43.213Z,21.74
2022-09-03T08:34:12.032Z,21.67
2022-09-03T08:36:41.878Z,21.71
2022-09-03T08:39:11.329Z,21.83
2022-09-03T08:41:44.820Z,21.81
2022-09-03T08:44:26.386Z,21.84
2022-09-03T08:46:56.398Z,21.81
2022-09-03T08:49:47.275Z,21.86
2022-09-03T08:52:32.655Z,21.88
2022-09-03T08:55:17.748Z,21.84
2022-09-03T08:57:49.233Z,21.93
2022-09-03T09:00:18.331Z,21.95
2022-09-03T09:03:06.144Z,22.06
2022-09-03T09:05:48.171Z,22.15
2022-09-03T09:08:15.537Z,22.14
2022-09-03T09:10:49.765Z,22.11
2022-09-03T09:13:37.005Z,22.19
2022-09-03T09:16:37.203Z,22.29
2022-09-03T09:19:32.539Z,22.49
2022-09-03T09:22:05.480Z,22.47
2022-09-03T09:24:53.587Z,22.60
2022-09-03T09:27:20.879Z,22.72
2022-09-03T09:29:50.189Z,22.79
2022-09-03T09:32:21.772Z,22.88
2022-09-03T09:34:52.321Z,23.02
2022-09-03T09:37:20.692Z,23.09
2022-09-03T09:40:00.014Z,23.15
2022-09-03T09:42:30.133Z,23.31
2022-09-03T09:44:57.502Z,23.32
2022-09-03T09:47:34.225Z,23.17
2022-09-03T09:50:03.858Z,23.04
2022-09-03T09:52:31.820Z,23.16
2022-09-03T09:55:19.572Z,23.35
2022-09-03T09:57:47.043Z,23.50
2022-09-03T10:00:18.161Z,23.57
2022-09-03T10:02:51.363Z,23.49
2022-09-03T10:05:33.414Z,23.55
2022-09-03T10:08:04.960Z,23.67
2022-09-03T10:10:50.216Z,23.73
2022-09-03T10:13:42.004Z,23.85
2022-09-03T10:16:21.763Z,23.82
2022-09-03T10:19:10.507Z,23.75
2022-09-03T10:22:06.543Z,23.68
2022-09-03T10:25:08.318Z,23.66
2022-09-03T10:27:36.626Z,23.72
2022-09-03T10:30:08.969Z,23.79
2022-09-03T10:32:58.807Z,23.80
2022-09-03T10:35:37.074Z,23.80
2022-09-03T10:38:17.679Z,23.93
2022-09-03T10:41:05.513Z,23.94
2022-09-03T10:43:33.343Z,24.00
2022-09-03T10:46:27.043Z,24.07
2022-09-03T10:49:10.701Z,24.19
2022-09-03T10:51:53.188Z,24.19
2022-09-03T10:54:29.159Z,24.29
2022-09-03T10:57:20.888Z,24.33
2022-09-03T11:00:20.302Z,24.26
2022-09-03T11:03:10.606Z,24.30
2022-09-03T11:05:45.512Z,24.38
2022-09-03T11:08:22.195Z,24.40
2022-09-03T11:11:12.275Z,24.45
2022-09-03T11:13:47.243Z,24.41
2022-09-03T11:16:21.314Z,24.31
2022-09-03T11:19:04.558Z,24.46
2022-09-03T11:21:34.614Z,24.46
2022-09-03T11:24:16.328Z,24.58
2022-09-03T11:26:56.787Z,24.60
2022-09-03T11:29:57.580Z,24.63
2022-09-03T11:32:33.440Z,24.66
2022-09-03T11:35:01.890Z,24.54
2022-09-03T11:37:31.273Z,24.58
2022-09-03T11:40:20.228Z,24.61
2022-09-03T11:42:48.396Z,24.56
2022-09-03T11:45:27.924Z,24.60
2022-09-03T11:47:55.227Z,24.63
2022-09-03T11:50:30.569Z,24.64
2022-09-03T11:53:10.650Z,24.73
2022-09-03T11:55:54.925Z,24.76
2022-09-03T11:58:22.724Z,24.77
2022-09-03T12:00:55.733Z,24.70
2022-09-03T12:03:41.791Z,24.75
2022-09-03T12:06:20.280Z,24.81
2022-09-03T12:08:53.811Z,24.80
2022-09-03T12:11:43.718Z,24.88
2022-09-03T12:14:21.865Z,24.90
2022-09-03T12:17:15.231Z,24.97
2022-09-03T12:20:13.840Z,24.88
2022-09-03T12:22:42.455Z,24.88
2022-09-03T12:25:15.307Z,24.94
2022-09-03T12:27:45.928Z,25.02
2022-09-03T12:30:31.132Z,24.97
2022-09-03T12:33:11.206Z,24.99
2022-09-03T12:38:27.711Z,25.01
2022-09-03T12:43:54.206Z,25.01
2022-09-03T12:46:33.139Z,25.04
2022-09-03T12:52:05.784Z,25.18
2022-09-03T12:54:38.154Z,25.15
2022-09-03T12:57:05.959Z,25.10
2022-09-03T12:59:37.521Z,25.18
2022-09-03T13:02:28.621Z,25.26
2022-09-03T13:04:56.932Z,25.23
2022-09-03T13:07:27.701Z,25.23
2022-09-03T13:10:04.008Z,25.28
2022-09-03T13:12:43.555Z,25.19
2022-09-03T13:15:21.298Z,25.31
2022-09-03T13:18:46.612Z,25.28
2022-09-03T13:21:32.586Z,25.25
2022-09-03T13:24:36.802Z,25.24
2022-09-03T13:27:26.417Z,25.24
2022-09-03T13:30:28.909Z,25.14
2022-09-03T13:33:22.603Z,25.16
2022-09-03T13:36:04.224Z,25.24
2022-09-03T13:38:52.004Z,25.24
2022-09-03T13:41:53.587Z,25.18
2022-09-03T13:44:42.520Z,25.22
2022-09-03T13:47:19.243Z,25.27
2022-09-03T13:50:23.948Z,25.22
2022-09-03T13:52:53.558Z,25.25
2022-09-03T13:55:51.922Z,25.31
2022-09-03T13:58:45.527Z,25.28
2022-09-03T14:01:59.590Z,25.28
2022-09-03T14:04:57.798Z,25.22
2022-09-03T14:07:49.427Z,25.21
2022-09-03T14:10:48.588Z,25.05
2022-09-03T14:13:51.821Z,25.15
2022-09-03T14:16:56.767Z,25.16
2022-09-03T14:19:28.078Z,25.11
2022-09-03T14:22:25.130Z,25.15
2022-09-03T14:25:22.443Z,25.06
2022-09-03T14:27:50.675Z,25.05
2022-09-03T14:31:02.052Z,24.99
2022-09-03T14:33:44.625Z,24.95
2022-09-03T14:36:24.435Z,24.93
2022-09-03T14:39:26.713Z,24.94
2022-09-03T14:42:37.525Z,24.96
2022-09-03T14:45:56.144Z,24.86
2022-09-03T14:48:49.680Z,24.75
2022-09-03T14:51:26.131Z,24.77
2022-09-03T14:54:16.102Z,24.82
2022-09-03T14:56:50.995Z,24.75
2022-09-03T14:59:36.547Z,24.65
2022-09-03T15:02:39.313Z,24.71
2022-09-03T15:05:12.302Z,24.64
2022-09-03T15:07:48.594Z,24.66
2022-09-03T15:10:32.125Z,24.66
2022-09-03T15:13:09.004Z,24.59
2022-09-03T15:15:42.647Z,24.56
2022-09-03T15:18:18.721Z,24.51
2022-09-03T15:20:53.161Z,24.48
2022-09-03T15:23:52.265Z,24.49
2022-09-03T15:26:59.386Z,24.45
2022-09-03T15:29:51.756Z,24.39
2022-09-03T15:32:27.725Z,24.37
2022-09-03T15:34:55.012Z,24.32
2022-09-03T15:37:28.683Z,24.30
2022-09-03T15:40:08.435Z,24.26
2022-09-03T15:42:36.879Z,24.16
2022-09-03T15:45:21.329Z,24.17
2022-09-03T15:48:01.750Z,24.06
2022-09-03T15:50:37.221Z,24.11
2022-09-03T15:53:26.200Z,24.02
2022-09-03T15:56:15.136Z,24.00
2022-09-03T15:59:00.538Z,24.00
2022-09-03T16:01:48.674Z,23.96
2022-09-03T16:04:16.125Z,23.95
2022-09-03T16:07:08.262Z,23.91
2022-09-03T16:13:05.253Z,23.82
2022-09-03T16:15:58.780Z,23.80
2022-09-03T16:18:36.180Z,23.78
2022-09-03T16:21:10.301Z,23.71
2022-09-03T16:23:55.503Z,23.70
2022-09-03T16:26:33.800Z,23.68
2022-09-03T16:29:14.007Z,23.60
2022-09-03T16:32:17.560Z,23.58
2022-09-03T16:35:00.217Z,23.51
2022-09-03T16:37:46.012Z,23.46
2022-09-03T16:40:56.875Z,23.42
2022-09-03T16:43:41.606Z,23.39
2022-09-03T16:46:09.141Z,23.30
2022-09-03T16:49:04.360Z,23.32
2022-09-03T16:51:46.798Z,23.30
2022-09-03T16:54:42.478Z,23.20
2022-09-03T16:57:43.692Z,23.04
2022-09-03T17:00:16.452Z,23.12
2022-09-03T17:03:02.096Z,23.10
2022-09-03T17:05:36.293Z,23.02
2022-09-03T17:08:18.867Z,23.03
2022-09-03T17:11:01.300Z,23.01
2022-09-03T17:13:46.632Z,22.97
2022-09-03T17:16:24.756Z,22.92
2022-09-03T17:19:00.074Z,22.88
2022-09-03T17:22:06.167Z,22.76
2022-09-03T17:24:39.419Z,22.78
2022-09-03T17:27:21.278Z,22.75
2022-09-03T17:29:57.874Z,22.70
2022-09-03T17:32:57.721Z,22.69
2022-09-03T17:35:38.276Z,22.62
2022-09-03T17:38:17.985Z,22.59
2022-09-03T17:41:00.554Z,22.58
2022-09-03T17:43:39.973Z,22.54
2022-09-03T17:46:39.451Z,22.48
2022-09-03T17:49:08.911Z,22.39
2022-09-03T17:52:00.233Z,22.41
2022-09-03T17:54:49.813Z,22.35
2022-09-03T17:57:20.196Z,22.31
2022-09-03T17:59:56.476Z,22.25
2022-09-03T18:02:58.720Z,22.23
2022-09-03T18:05:44.350Z,22.14
2022-09-03T18:08:22.204Z,22.14
2022-09-03T18:11:14.606Z,22.12
2022-09-03T18:14:12.997Z,22.06
2022-09-03T18:17:15.533Z,22.04
2022-09-03T18:20:07.118Z,22.00
2022-09-03T18:23:15.395Z,21.99
2022-09-03T18:26:05.804Z,21.91
2022-09-03T18:29:17.702Z,21.93
2022-09-03T18:32:03.969Z,21.80
2022-09-03T18:34:55.198Z,21.82
2022-09-03T18:37:43.600Z,21.82
2022-09-03T18:40:41.252Z,21.83
2022-09-03T18:43:48.504Z,21.85
2022-09-03T18:50:07.652Z,21.78
2022-09-03T18:53:26.581Z,21.73
2022-09-03T18:56:57.293Z,21.73
2022-09-03T18:59:53.170Z,21.64
2022-09-03T19:02:56.434Z,21.69
2022-09-03T19:05:54.162Z,21.65
2022-09-03T19:08:51.448Z,21.61
2022-09-03T19:11:43.236Z,21.64
2022-09-03T19:14:44.471Z,21.57
2022-09-03T19:17:51.305Z,21.60
2022-09-03T19:20:49.175Z,21.59
2022-09-03T19:23:37.062Z,21.54
2022-09-03T19:26:43.328Z,21.57
2022-09-03T19:30:03.843Z,21.52
2022-09-03T19:33:23.124Z,21.44
2022-09-03T19:36:17.967Z,21.42
2022-09-03T19:39:30.283Z,21.46
2022-09-03T19:42:19.160Z,21.42
2022-09-03T19:45:07.819Z,21.37
2022-09-03T19:48:09.181Z,21.34
2022-09-03T19:51:01.998Z,21.36
2022-09-03T19:53:50.508Z,21.30
2022-09-03T19:56:46.154Z,21.30
2022-09-03T19:59:39.283Z,21.24
2022-09-03T20:02:25.175Z,21.27
2022-09-03T20:05:18.337Z,21.32
2022-09-03T20:08:08.692Z,21.32
2022-09-03T20:10:36.918Z,21.29
2022-09-03T20:13:10.146Z,21.28
2022-09-03T20:16:01.089Z,21.30
2022-09-03T20:19:05.100Z,21.35
2022-09-03T20:21:43.907Z,21.31
2022-09-03T20:24:21.496Z,21.36
2022-09-03T20:26:57.992Z,21.37
2022-09-03T20:29:54.964Z,21.39
2022-09-03T20:32:47.505Z,21.38
2022-09-03T20:35:46.564Z,21.37
2022-09-03T20:38:53.784Z,21.37
2022-09-03T20:41:26.083Z,21.39
2022-09-03T20:44:13.195Z,21.34
2022-09-03T20:46:48.790Z,21.26
2022-09-03T20:49:53.234Z,21.32
2022-09-03T20:52:46.021Z,21.29
2022-09-03T20:55:23.799Z,21.28
2022-09-03T20:58:06.261Z,21.31
2022-09-03T21:00:58.135Z,21.30
2022-09-03T21:03:37.625Z,21.30
2022-09-03T21:06:20.632Z,21.30
2022-09-03T21:09:13.041Z,21.26
2022-09-03T21:11:55.436Z,21.28
2022-09-03T21:14:38.963Z,21.29
2022-09-03T21:17:18.538Z,21.29
2022-09-03T21:20:26.906Z,21.32
2022-09-03T21:23:23.968Z,21.35
2022-09-03T21:26:04.486Z,21.31
2022-09-03T21:28:56.032Z,21.34
2022-09-03T21:31:32.239Z,21.35
2022-09-03T21:34:12.061Z,21.33
2022-09-03T21:36:43.391Z,21.32
2022-09-03T21:39:20.241Z,21.30
2022-09-03T21:41:58.142Z,21.32
2022-09-03T21:44:36.244Z,21.34
2022-09-03T21:47:09.998Z,21.28
2022-09-03T21:49:57.483Z,21.32
2022-09-03T21:52:52.279Z,21.26
2022-09-03T21:55:46.671Z,21.29
2022-09-03T21:58:16.793Z,21.26
2022-09-03T22:00:46.244Z,21.18
2022-09-03T22:03:14.200Z,21.19
2022-09-03T22:05:57.516Z,21.18
2022-09-03T22:08:39.290Z,21.15
2022-09-03T22:11:16.495Z,21.10
2022-09-03T22:13:54.536Z,21.09
2022-09-03T22:16:39.401Z,21.04
2022-09-03T22:19:09.286Z,21.06
2022-09-03T22:21:44.494Z,21.05
2022-09-03T22:24:25.687Z,21.00
2022-09-03T22:26:58.381Z,21.02
2022-09-03T22:29:50.328Z,20.98
2022-09-03T22:32:34.089Z,20.98
2022-09-03T22:35:16.369Z,20.91
2022-09-03T22:37:52.193Z,20.92
2022-09-03T22:40:25.137Z,20.88
2022-09-03T22:43:11.851Z,20.92
2022-09-03T22:46:08.346Z,20.92
2022-09-03T22:48:44.756Z,20.91
2022-09-03T22:51:13.672Z,20.88
2022-09-03T22:53:50.119Z,20.88
2022-09-03T22:56:24.555Z,20.92
2022-09-03T22:59:02.844Z,21.04
2022-09-03T23:02:03.773Z,20.92
2022-09-03T23:04:49.237Z,20.83
2022-09-03T23:07:54.814Z,20.76
2022-09-03T23:10:34.277Z,20.68
2022-09-03T23:13:19.037Z,20.69
2022-09-03T23:15:56.698Z,20.66
2022-09-03T23:18:27.363Z,20.59
2022-09-03T23:21:31.069Z,20.66
2022-09-03T23:24:16.748Z,20.65
2022-09-03T23:26:43.897Z,20.57
2022-09-03T23:29:26.475Z,20.59
2022-09-03T23:31:57.718Z,20.55
2022-09-03T23:34:26.091Z,20.56
2022-09-03T23:40:14.664Z,20.48
2022-09-03T23:43:03.744Z,20.49
2022-09-03T23:45:55.724Z,20.46
2022-09-03T23:48:37.727Z,20.42
2022-09-03T23:51:35.868Z,20.40
2022-09-03T23:54:25.221Z,20.33
2022-09-03T23:57:24.647Z,20.28
